sensor_id;sensor_type;location;lat;lon;timestamp;P1;durP1;ratioP1;P2;durP2;ratioP2
31760;SDS011;18335;51.486;7.562;2022-12-07T00:01:18;41.60;;;29.00;;
31760;SDS011;18335;51.486;7.562;2022-12-07T00:03:46;41.65;;;27.23;;
31760;SDS011;18335;51.486;7.562;2022-12-07T00:06:14;43.40;;;26.95;;
31760;SDS011;18335;51.486;7.562;2022-12-07T00:08:42;43.70;;;27.73;;
31760;SDS011;18335;51.486;7.562;2022-12-07T00:11:11;41.75;;;27.30;;
31760;SDS011;18335;51.486;7.562;2022-12-07T00:13:39;42.83;;;27.83;;
31760;SDS011;18335;51.486;7.562;2022-12-07T00:16:07;42.50;;;28.27;;
31760;SDS011;18335;51.486;7.562;2022-12-07T00:18:37;43.75;;;28.05;;
31760;SDS011;18335;51.486;7.562;2022-12-07T00:21:04;40.72;;;27.70;;
31760;SDS011;18335;51.486;7.562;2022-12-07T00:23:33;39.08;;;25.73;;
31760;SDS011;18335;51.486;7.562;2022-12-07T00:26:03;46.15;;;29.40;;
31760;SDS011;18335;51.486;7.562;2022-12-07T00:28:31;45.55;;;26.85;;
31760;SDS011;18335;51.486;7.562;2022-12-07T00:31:00;46.78;;;29.85;;
31760;SDS011;18335;51.486;7.562;2022-12-07T00:33:28;45.22;;;28.98;;
31760;SDS011;18335;51.486;7.562;2022-12-07T00:35:57;46.88;;;27.70;;
31760;SDS011;18335;51.486;7.562;2022-12-07T00:38:24;41.60;;;26.98;;
31760;SDS011;18335;51.486;7.562;2022-12-07T00:40:54;41.75;;;27.02;;
31760;SDS011;18335;51.486;7.562;2022-12-07T00:43:22;45.08;;;26.80;;
31760;SDS011;18335;51.486;7.562;2022-12-07T00:45:49;44.55;;;28.02;;
31760;SDS011;18335;51.486;7.562;2022-12-07T00:48:16;41.03;;;26.67;;
31760;SDS011;18335;51.486;7.562;2022-12-07T00:50:43;46.55;;;27.73;;
31760;SDS011;18335;51.486;7.562;2022-12-07T00:53:11;41.78;;;26.08;;
31760;SDS011;18335;51.486;7.562;2022-12-07T00:55:38;35.85;;;24.20;;
31760;SDS011;18335;51.486;7.562;2022-12-07T00:58:05;40.13;;;27.38;;
31760;SDS011;18335;51.486;7.562;2022-12-07T01:00:31;36.83;;;24.83;;
31760;SDS011;18335;51.486;7.562;2022-12-07T01:02:59;42.75;;;27.60;;
31760;SDS011;18335;51.486;7.562;2022-12-07T01:05:26;37.08;;;24.38;;
31760;SDS011;18335;51.486;7.562;2022-12-07T01:07:53;41.40;;;26.00;;
31760;SDS011;18335;51.486;7.562;2022-12-07T01:10:21;40.08;;;25.02;;
31760;SDS011;18335;51.486;7.562;2022-12-07T01:12:47;42.78;;;27.52;;
31760;SDS011;18335;51.486;7.562;2022-12-07T01:15:14;45.75;;;27.17;;
31760;SDS011;18335;51.486;7.562;2022-12-07T01:17:41;41.70;;;27.00;;
31760;SDS011;18335;51.486;7.562;2022-12-07T01:20:08;47.92;;;26.52;;
31760;SDS011;18335;51.486;7.562;2022-12-07T01:22:36;41.05;;;26.15;;
31760;SDS011;18335;51.486;7.562;2022-12-07T01:25:04;41.13;;;25.65;;
31760;SDS011;18335;51.486;7.562;2022-12-07T01:27:33;34.28;;;22.92;;
31760;SDS011;18335;51.486;7.562;2022-12-07T01:30:00;33.25;;;21.70;;
31760;SDS011;18335;51.486;7.562;2022-12-07T01:32:28;36.17;;;23.05;;
31760;SDS011;18335;51.486;7.562;2022-12-07T01:34:55;33.15;;;21.58;;
31760;SDS011;18335;51.486;7.562;2022-12-07T01:37:22;36.10;;;21.77;;
31760;SDS011;18335;51.486;7.562;2022-12-07T01:39:48;31.98;;;21.80;;
31760;SDS011;18335;51.486;7.562;2022-12-07T01:42:17;37.85;;;24.27;;
31760;SDS011;18335;51.486;7.562;2022-12-07T01:50:30;37.08;;;24.20;;
31760;SDS011;18335;51.486;7.562;2022-12-07T01:52:57;34.55;;;23.30;;
31760;SDS011;18335;51.486;7.562;2022-12-07T01:55:26;34.22;;;24.08;;
31760;SDS011;18335;51.486;7.562;2022-12-07T01:57:53;38.95;;;25.60;;
31760;SDS011;18335;51.486;7.562;2022-12-07T02:00:22;32.83;;;22.63;;
31760;SDS011;18335;51.486;7.562;2022-12-07T02:02:51;39.95;;;25.08;;
31760;SDS011;18335;51.486;7.562;2022-12-07T02:05:22;38.83;;;24.50;;
31760;SDS011;18335;51.486;7.562;2022-12-07T02:07:51;41.40;;;25.42;;
31760;SDS011;18335;51.486;7.562;2022-12-07T02:10:21;34.22;;;23.38;;
31760;SDS011;18335;51.486;7.562;2022-12-07T02:12:52;41.42;;;24.23;;
31760;SDS011;18335;51.486;7.562;2022-12-07T02:15:22;43.10;;;25.52;;
31760;SDS011;18335;51.486;7.562;2022-12-07T02:17:55;38.00;;;24.35;;
31760;SDS011;18335;51.486;7.562;2022-12-07T02:20:29;33.90;;;23.52;;
31760;SDS011;18335;51.486;7.562;2022-12-07T02:26:19;31.35;;;21.77;;
31760;SDS011;18335;51.486;7.562;2022-12-07T02:29:09;39.35;;;24.83;;
31760;SDS011;18335;51.486;7.562;2022-12-07T02:31:41;36.28;;;22.33;;
31760;SDS011;18335;51.486;7.562;2022-12-07T02:34:14;35.08;;;22.42;;
31760;SDS011;18335;51.486;7.562;2022-12-07T02:36:46;34.63;;;24.23;;
31760;SDS011;18335;51.486;7.562;2022-12-07T02:39:22;33.58;;;22.33;;
31760;SDS011;18335;51.486;7.562;2022-12-07T02:41:58;34.97;;;23.98;;
31760;SDS011;18335;51.486;7.562;2022-12-07T02:44:35;37.55;;;23.88;;
31760;SDS011;18335;51.486;7.562;2022-12-07T02:47:03;37.53;;;22.63;;
31760;SDS011;18335;51.486;7.562;2022-12-07T02:49:33;32.95;;;22.52;;
31760;SDS011;18335;51.486;7.562;2022-12-07T02:52:01;38.05;;;23.77;;
31760;SDS011;18335;51.486;7.562;2022-12-07T02:54:28;33.75;;;23.05;;
31760;SDS011;18335;51.486;7.562;2022-12-07T02:56:56;36.35;;;21.98;;
31760;SDS011;18335;51.486;7.562;2022-12-07T02:59:30;38.85;;;22.95;;
31760;SDS011;18335;51.486;7.562;2022-12-07T03:02:14;32.42;;;20.13;;
31760;SDS011;18335;51.486;7.562;2022-12-07T03:04:51;30.38;;;20.83;;
31760;SDS011;18335;51.486;7.562;2022-12-07T03:07:24;36.10;;;21.75;;
31760;SDS011;18335;51.486;7.562;2022-12-07T03:10:01;35.88;;;23.55;;
31760;SDS011;18335;51.486;7.562;2022-12-07T03:12:34;33.65;;;21.90;;
31760;SDS011;18335;51.486;7.562;2022-12-07T03:17:40;30.77;;;19.98;;
31760;SDS011;18335;51.486;7.562;2022-12-07T03:20:11;31.38;;;21.23;;
31760;SDS011;18335;51.486;7.562;2022-12-07T03:22:42;35.53;;;22.63;;
31760;SDS011;18335;51.486;7.562;2022-12-07T03:25:11;34.95;;;22.05;;
31760;SDS011;18335;51.486;7.562;2022-12-07T03:27:42;39.70;;;24.40;;
31760;SDS011;18335;51.486;7.562;2022-12-07T03:32:48;33.17;;;20.85;;
31760;SDS011;18335;51.486;7.562;2022-12-07T03:35:22;37.60;;;22.67;;
31760;SDS011;18335;51.486;7.562;2022-12-07T03:37:54;38.00;;;21.63;;
31760;SDS011;18335;51.486;7.562;2022-12-07T03:40:26;34.78;;;21.65;;
31760;SDS011;18335;51.486;7.562;2022-12-07T03:42:57;36.55;;;23.45;;
31760;SDS011;18335;51.486;7.562;2022-12-07T03:45:30;31.13;;;20.10;;
31760;SDS011;18335;51.486;7.562;2022-12-07T03:48:04;32.30;;;20.33;;
31760;SDS011;18335;51.486;7.562;2022-12-07T03:50:36;33.70;;;20.20;;
31760;SDS011;18335;51.486;7.562;2022-12-07T03:53:11;34.53;;;20.00;;
31760;SDS011;18335;51.486;7.562;2022-12-07T03:55:42;28.92;;;19.15;;
31760;SDS011;18335;51.486;7.562;2022-12-07T03:58:11;34.15;;;20.15;;
31760;SDS011;18335;51.486;7.562;2022-12-07T04:00:43;31.38;;;18.63;;
31760;SDS011;18335;51.486;7.562;2022-12-07T04:03:10;31.85;;;19.85;;
31760;SDS011;18335;51.486;7.562;2022-12-07T04:05:37;30.02;;;19.25;;
31760;SDS011;18335;51.486;7.562;2022-12-07T04:08:05;31.17;;;20.85;;
31760;SDS011;18335;51.486;7.562;2022-12-07T04:10:31;28.48;;;19.05;;
31760;SDS011;18335;51.486;7.562;2022-12-07T04:12:58;32.03;;;20.70;;
31760;SDS011;18335;51.486;7.562;2022-12-07T04:15:25;37.53;;;22.50;;
31760;SDS011;18335;51.486;7.562;2022-12-07T04:17:53;37.30;;;21.58;;
31760;SDS011;18335;51.486;7.562;2022-12-07T04:20:20;35.47;;;21.48;;
31760;SDS011;18335;51.486;7.562;2022-12-07T04:22:47;32.35;;;21.30;;
31760;SDS011;18335;51.486;7.562;2022-12-07T04:25:13;35.92;;;21.15;;
31760;SDS011;18335;51.486;7.562;2022-12-07T04:27:40;34.75;;;21.77;;
31760;SDS011;18335;51.486;7.562;2022-12-07T04:30:07;36.13;;;21.88;;
31760;SDS011;18335;51.486;7.562;2022-12-07T04:32:34;32.72;;;21.33;;
31760;SDS011;18335;51.486;7.562;2022-12-07T04:35:03;36.67;;;21.35;;
31760;SDS011;18335;51.486;7.562;2022-12-07T04:37:30;33.17;;;20.58;;
31760;SDS011;18335;51.486;7.562;2022-12-07T04:39:57;31.55;;;19.63;;
31760;SDS011;18335;51.486;7.562;2022-12-07T04:42:23;31.17;;;19.00;;
31760;SDS011;18335;51.486;7.562;2022-12-07T04:44:50;35.60;;;19.73;;
31760;SDS011;18335;51.486;7.562;2022-12-07T04:47:17;32.05;;;19.52;;
31760;SDS011;18335;51.486;7.562;2022-12-07T04:49:43;31.95;;;19.58;;
31760;SDS011;18335;51.486;7.562;2022-12-07T04:52:11;33.47;;;19.30;;
31760;SDS011;18335;51.486;7.562;2022-12-07T04:54:38;31.85;;;21.17;;
31760;SDS011;18335;51.486;7.562;2022-12-07T04:57:05;33.72;;;19.15;;
31760;SDS011;18335;51.486;7.562;2022-12-07T04:59:31;32.00;;;19.38;;
31760;SDS011;18335;51.486;7.562;2022-12-07T05:01:58;33.15;;;21.17;;
31760;SDS011;18335;51.486;7.562;2022-12-07T05:04:25;27.70;;;18.60;;
31760;SDS011;18335;51.486;7.562;2022-12-07T05:06:51;36.95;;;18.70;;
31760;SDS011;18335;51.486;7.562;2022-12-07T05:09:19;27.85;;;17.85;;
31760;SDS011;18335;51.486;7.562;2022-12-07T05:11:46;28.13;;;17.05;;
31760;SDS011;18335;51.486;7.562;2022-12-07T05:14:13;26.20;;;15.95;;
31760;SDS011;18335;51.486;7.562;2022-12-07T05:16:42;26.27;;;16.25;;
31760;SDS011;18335;51.486;7.562;2022-12-07T05:19:10;27.30;;;16.48;;
31760;SDS011;18335;51.486;7.562;2022-12-07T05:21:37;24.23;;;15.30;;
31760;SDS011;18335;51.486;7.562;2022-12-07T05:24:04;27.92;;;16.17;;
31760;SDS011;18335;51.486;7.562;2022-12-07T05:26:33;26.92;;;17.02;;
31760;SDS011;18335;51.486;7.562;2022-12-07T05:29:00;26.33;;;15.15;;
31760;SDS011;18335;51.486;7.562;2022-12-07T05:31:27;26.88;;;16.63;;
31760;SDS011;18335;51.486;7.562;2022-12-07T05:33:54;25.40;;;14.88;;
31760;SDS011;18335;51.486;7.562;2022-12-07T05:36:21;26.73;;;16.77;;
31760;SDS011;18335;51.486;7.562;2022-12-07T05:38:48;27.52;;;17.33;;
31760;SDS011;18335;51.486;7.562;2022-12-07T05:41:17;25.23;;;15.07;;
31760;SDS011;18335;51.486;7.562;2022-12-07T05:44:04;27.65;;;16.10;;
31760;SDS011;18335;51.486;7.562;2022-12-07T05:46:31;31.33;;;17.73;;
31760;SDS011;18335;51.486;7.562;2022-12-07T05:48:58;28.67;;;17.77;;
31760;SDS011;18335;51.486;7.562;2022-12-07T05:51:25;27.00;;;16.60;;
31760;SDS011;18335;51.486;7.562;2022-12-07T05:53:52;34.40;;;18.40;;
31760;SDS011;18335;51.486;7.562;2022-12-07T05:56:18;28.23;;;17.45;;
31760;SDS011;18335;51.486;7.562;2022-12-07T05:58:45;30.13;;;17.52;;
31760;SDS011;18335;51.486;7.562;2022-12-07T06:01:31;31.90;;;17.70;;
31760;SDS011;18335;51.486;7.562;2022-12-07T06:03:58;35.78;;;17.65;;
31760;SDS011;18335;51.486;7.562;2022-12-07T06:06:24;27.40;;;16.10;;
31760;SDS011;18335;51.486;7.562;2022-12-07T06:08:51;28.75;;;17.00;;
31760;SDS011;18335;51.486;7.562;2022-12-07T06:11:18;26.20;;;15.73;;
31760;SDS011;18335;51.486;7.562;2022-12-07T06:14:02;29.30;;;15.75;;
31760;SDS011;18335;51.486;7.562;2022-12-07T06:16:29;27.63;;;15.98;;
31760;SDS011;18335;51.486;7.562;2022-12-07T06:18:57;30.77;;;16.25;;
31760;SDS011;18335;51.486;7.562;2022-12-07T06:21:23;29.25;;;16.20;;
31760;SDS011;18335;51.486;7.562;2022-12-07T06:23:51;33.25;;;15.77;;
31760;SDS011;18335;51.486;7.562;2022-12-07T06:26:18;32.67;;;15.52;;
31760;SDS011;18335;51.486;7.562;2022-12-07T06:28:45;32.75;;;16.92;;
31760;SDS011;18335;51.486;7.562;2022-12-07T06:31:11;36.65;;;17.63;;
31760;SDS011;18335;51.486;7.562;2022-12-07T06:33:38;30.35;;;16.52;;
31760;SDS011;18335;51.486;7.562;2022-12-07T06:36:07;38.78;;;15.48;;
31760;SDS011;18335;51.486;7.562;2022-12-07T06:38:34;28.35;;;15.55;;
31760;SDS011;18335;51.486;7.562;2022-12-07T06:41:01;26.65;;;16.08;;
31760;SDS011;18335;51.486;7.562;2022-12-07T06:43:27;25.90;;;15.10;;
31760;SDS011;18335;51.486;7.562;2022-12-07T06:45:55;28.83;;;14.93;;
31760;SDS011;18335;51.486;7.562;2022-12-07T06:48:22;27.08;;;15.05;;
31760;SDS011;18335;51.486;7.562;2022-12-07T06:50:49;28.10;;;16.87;;
31760;SDS011;18335;51.486;7.562;2022-12-07T06:53:17;31.52;;;15.88;;
31760;SDS011;18335;51.486;7.562;2022-12-07T06:55:43;28.08;;;15.98;;
31760;SDS011;18335;51.486;7.562;2022-12-07T06:58:10;27.80;;;14.95;;
31760;SDS011;18335;51.486;7.562;2022-12-07T07:00:37;25.00;;;14.90;;
31760;SDS011;18335;51.486;7.562;2022-12-07T07:03:03;26.52;;;14.95;;
31760;SDS011;18335;51.486;7.562;2022-12-07T07:05:30;27.48;;;15.88;;
31760;SDS011;18335;51.486;7.562;2022-12-07T07:07:57;28.02;;;16.70;;
31760;SDS011;18335;51.486;7.562;2022-12-07T07:10:25;28.75;;;14.57;;
31760;SDS011;18335;51.486;7.562;2022-12-07T07:12:51;36.92;;;16.67;;
31760;SDS011;18335;51.486;7.562;2022-12-07T07:15:18;29.27;;;15.93;;
31760;SDS011;18335;51.486;7.562;2022-12-07T07:17:45;32.03;;;16.58;;
31760;SDS011;18335;51.486;7.562;2022-12-07T07:20:12;31.27;;;17.25;;
31760;SDS011;18335;51.486;7.562;2022-12-07T07:22:39;28.08;;;15.82;;
31760;SDS011;18335;51.486;7.562;2022-12-07T07:25:06;30.90;;;16.10;;
31760;SDS011;18335;51.486;7.562;2022-12-07T07:27:35;28.67;;;16.90;;
31760;SDS011;18335;51.486;7.562;2022-12-07T07:30:02;33.75;;;17.48;;
31760;SDS011;18335;51.486;7.562;2022-12-07T07:32:29;31.17;;;14.95;;
31760;SDS011;18335;51.486;7.562;2022-12-07T07:34:55;29.15;;;14.93;;
31760;SDS011;18335;51.486;7.562;2022-12-07T07:37:22;29.10;;;14.65;;
31760;SDS011;18335;51.486;7.562;2022-12-07T07:39:49;31.33;;;16.40;;
31760;SDS011;18335;51.486;7.562;2022-12-07T07:42:15;28.30;;;16.52;;
31760;SDS011;18335;51.486;7.562;2022-12-07T07:44:44;30.30;;;16.48;;
31760;SDS011;18335;51.486;7.562;2022-12-07T07:47:10;32.28;;;14.75;;
31760;SDS011;18335;51.486;7.562;2022-12-07T07:49:37;29.45;;;14.55;;
31760;SDS011;18335;51.486;7.562;2022-12-07T07:52:04;25.48;;;14.77;;
31760;SDS011;18335;51.486;7.562;2022-12-07T07:54:31;25.48;;;13.77;;
31760;SDS011;18335;51.486;7.562;2022-12-07T07:56:58;25.10;;;13.27;;
31760;SDS011;18335;51.486;7.562;2022-12-07T07:59:24;25.73;;;13.68;;
31760;SDS011;18335;51.486;7.562;2022-12-07T08:01:53;24.40;;;13.82;;
31760;SDS011;18335;51.486;7.562;2022-12-07T08:04:19;28.02;;;13.85;;
31760;SDS011;18335;51.486;7.562;2022-12-07T08:06:46;23.85;;;11.63;;
31760;SDS011;18335;51.486;7.562;2022-12-07T08:09:13;35.70;;;13.88;;
31760;SDS011;18335;51.486;7.562;2022-12-07T08:11:40;29.23;;;13.65;;
31760;SDS011;18335;51.486;7.562;2022-12-07T08:14:06;22.73;;;12.13;;
31760;SDS011;18335;51.486;7.562;2022-12-07T08:16:33;22.67;;;12.32;;
31760;SDS011;18335;51.486;7.562;2022-12-07T08:19:01;24.23;;;13.00;;
31760;SDS011;18335;51.486;7.562;2022-12-07T08:21:30;28.65;;;13.77;;
31760;SDS011;18335;51.486;7.562;2022-12-07T08:23:57;27.58;;;14.05;;
31760;SDS011;18335;51.486;7.562;2022-12-07T08:26:24;31.23;;;13.57;;
31760;SDS011;18335;51.486;7.562;2022-12-07T08:28:52;27.42;;;13.07;;
31760;SDS011;18335;51.486;7.562;2022-12-07T08:31:18;29.70;;;12.50;;
31760;SDS011;18335;51.486;7.562;2022-12-07T08:33:45;29.02;;;13.25;;
31760;SDS011;18335;51.486;7.562;2022-12-07T08:36:14;26.08;;;13.73;;
31760;SDS011;18335;51.486;7.562;2022-12-07T08:38:41;26.75;;;12.90;;
31760;SDS011;18335;51.486;7.562;2022-12-07T08:41:08;26.67;;;12.63;;
31760;SDS011;18335;51.486;7.562;2022-12-07T08:43:35;29.15;;;14.43;;
31760;SDS011;18335;51.486;7.562;2022-12-07T08:46:05;25.42;;;12.10;;
31760;SDS011;18335;51.486;7.562;2022-12-07T08:48:35;22.42;;;11.93;;
31760;SDS011;18335;51.486;7.562;2022-12-07T08:51:05;22.80;;;11.80;;
31760;SDS011;18335;51.486;7.562;2022-12-07T08:53:33;22.48;;;11.50;;
31760;SDS011;18335;51.486;7.562;2022-12-07T08:56:01;25.13;;;11.88;;
31760;SDS011;18335;51.486;7.562;2022-12-07T08:58:28;20.40;;;10.77;;
31760;SDS011;18335;51.486;7.562;2022-12-07T09:00:54;22.75;;;11.35;;
31760;SDS011;18335;51.486;7.562;2022-12-07T09:03:21;25.67;;;11.32;;
31760;SDS011;18335;51.486;7.562;2022-12-07T09:05:48;25.02;;;10.75;;
31760;SDS011;18335;51.486;7.562;2022-12-07T09:08:15;23.20;;;11.45;;
31760;SDS011;18335;51.486;7.562;2022-12-07T09:10:43;22.92;;;12.98;;
31760;SDS011;18335;51.486;7.562;2022-12-07T09:13:10;23.23;;;12.13;;
31760;SDS011;18335;51.486;7.562;2022-12-07T09:15:37;21.27;;;11.38;;
31760;SDS011;18335;51.486;7.562;2022-12-07T09:18:04;21.55;;;11.20;;
31760;SDS011;18335;51.486;7.562;2022-12-07T09:20:30;29.42;;;10.88;;
31760;SDS011;18335;51.486;7.562;2022-12-07T09:22:57;21.10;;;9.77;;
31760;SDS011;18335;51.486;7.562;2022-12-07T09:25:24;21.42;;;10.60;;
31760;SDS011;18335;51.486;7.562;2022-12-07T09:27:56;23.00;;;10.80;;
31760;SDS011;18335;51.486;7.562;2022-12-07T09:30:23;20.73;;;10.50;;
31760;SDS011;18335;51.486;7.562;2022-12-07T09:32:52;19.63;;;10.40;;
31760;SDS011;18335;51.486;7.562;2022-12-07T09:35:19;18.52;;;11.27;;
31760;SDS011;18335;51.486;7.562;2022-12-07T09:37:46;24.67;;;10.27;;
31760;SDS011;18335;51.486;7.562;2022-12-07T09:40:14;19.27;;;10.48;;
31760;SDS011;18335;51.486;7.562;2022-12-07T09:42:43;19.80;;;9.60;;
31760;SDS011;18335;51.486;7.562;2022-12-07T09:45:16;21.30;;;9.85;;
31760;SDS011;18335;51.486;7.562;2022-12-07T09:47:45;22.98;;;9.90;;
31760;SDS011;18335;51.486;7.562;2022-12-07T09:50:13;27.98;;;12.32;;
31760;SDS011;18335;51.486;7.562;2022-12-07T09:52:42;19.20;;;10.65;;
31760;SDS011;18335;51.486;7.562;2022-12-07T09:55:13;26.23;;;10.95;;
31760;SDS011;18335;51.486;7.562;2022-12-07T09:57:41;19.45;;;9.68;;
31760;SDS011;18335;51.486;7.562;2022-12-07T10:00:11;24.95;;;12.00;;
31760;SDS011;18335;51.486;7.562;2022-12-07T10:02:42;23.58;;;12.55;;
31760;SDS011;18335;51.486;7.562;2022-12-07T10:05:12;26.60;;;11.43;;
31760;SDS011;18335;51.486;7.562;2022-12-07T10:07:41;33.10;;;13.45;;
31760;SDS011;18335;51.486;7.562;2022-12-07T10:10:13;21.58;;;10.02;;
31760;SDS011;18335;51.486;7.562;2022-12-07T10:12:52;28.17;;;12.75;;
31760;SDS011;18335;51.486;7.562;2022-12-07T10:15:20;26.75;;;13.00;;
31760;SDS011;18335;51.486;7.562;2022-12-07T10:17:49;25.52;;;12.25;;
31760;SDS011;18335;51.486;7.562;2022-12-07T10:20:18;23.02;;;13.27;;
31760;SDS011;18335;51.486;7.562;2022-12-07T10:23:01;25.95;;;13.60;;
31760;SDS011;18335;51.486;7.562;2022-12-07T10:25:31;29.85;;;13.88;;
31760;SDS011;18335;51.486;7.562;2022-12-07T10:27:59;22.77;;;11.93;;
31760;SDS011;18335;51.486;7.562;2022-12-07T10:30:28;27.52;;;15.38;;
31760;SDS011;18335;51.486;7.562;2022-12-07T10:32:57;27.70;;;14.45;;
31760;SDS011;18335;51.486;7.562;2022-12-07T10:35:24;30.08;;;15.65;;
31760;SDS011;18335;51.486;7.562;2022-12-07T10:37:53;30.27;;;18.35;;
31760;SDS011;18335;51.486;7.562;2022-12-07T10:40:29;28.00;;;15.48;;
31760;SDS011;18335;51.486;7.562;2022-12-07T10:43:05;27.67;;;15.25;;
31760;SDS011;18335;51.486;7.562;2022-12-07T10:45:44;31.23;;;15.48;;
31760;SDS011;18335;51.486;7.562;2022-12-07T10:48:33;30.25;;;15.65;;
31760;SDS011;18335;51.486;7.562;2022-12-07T10:51:07;27.05;;;15.85;;
31760;SDS011;18335;51.486;7.562;2022-12-07T10:53:40;29.77;;;16.98;;
31760;SDS011;18335;51.486;7.562;2022-12-07T10:56:27;33.58;;;17.25;;
31760;SDS011;18335;51.486;7.562;2022-12-07T10:59:17;28.67;;;17.95;;
31760;SDS011;18335;51.486;7.562;2022-12-07T11:01:57;30.35;;;16.13;;
31760;SDS011;18335;51.486;7.562;2022-12-07T11:04:36;37.88;;;17.88;;
31760;SDS011;18335;51.486;7.562;2022-12-07T11:07:10;33.10;;;17.48;;
31760;SDS011;18335;51.486;7.562;2022-12-07T11:09:57;37.17;;;17.98;;
31760;SDS011;18335;51.486;7.562;2022-12-07T11:12:32;29.60;;;16.95;;
31760;SDS011;18335;51.486;7.562;2022-12-07T11:15:12;29.65;;;15.48;;
31760;SDS011;18335;51.486;7.562;2022-12-07T11:17:45;28.88;;;14.10;;
31760;SDS011;18335;51.486;7.562;2022-12-07T11:20:29;29.38;;;14.15;;
31760;SDS011;18335;51.486;7.562;2022-12-07T11:23:11;24.45;;;13.32;;
31760;SDS011;18335;51.486;7.562;2022-12-07T11:25:47;24.88;;;13.07;;
31760;SDS011;18335;51.486;7.562;2022-12-07T11:28:23;30.52;;;13.80;;
31760;SDS011;18335;51.486;7.562;2022-12-07T11:31:02;27.60;;;12.27;;
31760;SDS011;18335;51.486;7.562;2022-12-07T11:33:40;22.15;;;11.18;;
31760;SDS011;18335;51.486;7.562;2022-12-07T11:36:17;25.52;;;11.93;;
31760;SDS011;18335;51.486;7.562;2022-12-07T11:39:01;21.27;;;10.45;;
31760;SDS011;18335;51.486;7.562;2022-12-07T11:41:31;21.67;;;10.35;;
31760;SDS011;18335;51.486;7.562;2022-12-07T11:44:05;22.20;;;10.60;;
31760;SDS011;18335;51.486;7.562;2022-12-07T11:46:39;17.92;;;10.35;;
31760;SDS011;18335;51.486;7.562;2022-12-07T11:49:13;22.05;;;9.18;;
31760;SDS011;18335;51.486;7.562;2022-12-07T11:51:48;18.63;;;8.40;;
31760;SDS011;18335;51.486;7.562;2022-12-07T11:54:21;18.20;;;8.32;;
31760;SDS011;18335;51.486;7.562;2022-12-07T11:56:53;21.48;;;8.50;;
31760;SDS011;18335;51.486;7.562;2022-12-07T11:59:23;17.45;;;7.88;;
31760;SDS011;18335;51.486;7.562;2022-12-07T12:01:58;22.30;;;8.75;;
31760;SDS011;18335;51.486;7.562;2022-12-07T12:04:41;15.07;;;8.55;;
31760;SDS011;18335;51.486;7.562;2022-12-07T12:07:21;21.00;;;8.55;;
31760;SDS011;18335;51.486;7.562;2022-12-07T12:09:51;22.05;;;9.45;;
31760;SDS011;18335;51.486;7.562;2022-12-07T12:12:24;22.08;;;8.73;;
31760;SDS011;18335;51.486;7.562;2022-12-07T12:15:13;19.13;;;8.93;;
31760;SDS011;18335;51.486;7.562;2022-12-07T12:20:51;19.58;;;8.65;;
31760;SDS011;18335;51.486;7.562;2022-12-07T12:23:27;23.83;;;8.63;;
31760;SDS011;18335;51.486;7.562;2022-12-07T12:26:02;16.00;;;7.13;;
31760;SDS011;18335;51.486;7.562;2022-12-07T12:28:32;17.08;;;7.68;;
31760;SDS011;18335;51.486;7.562;2022-12-07T12:31:06;14.75;;;5.95;;
31760;SDS011;18335;51.486;7.562;2022-12-07T12:33:35;18.95;;;8.35;;
31760;SDS011;18335;51.486;7.562;2022-12-07T12:41:52;22.23;;;5.82;;
31760;SDS011;18335;51.486;7.562;2022-12-07T12:47:40;13.07;;;5.65;;
31760;SDS011;18335;51.486;7.562;2022-12-07T12:50:18;15.45;;;4.68;;
31760;SDS011;18335;51.486;7.562;2022-12-07T12:52:58;14.00;;;5.53;;
31760;SDS011;18335;51.486;7.562;2022-12-07T12:58:30;12.25;;;4.18;;
31760;SDS011;18335;51.486;7.562;2022-12-07T13:04:21;10.82;;;3.97;;
31760;SDS011;18335;51.486;7.562;2022-12-07T13:06:51;14.38;;;5.50;;
31760;SDS011;18335;51.486;7.562;2022-12-07T13:09:20;17.15;;;5.55;;
31760;SDS011;18335;51.486;7.562;2022-12-07T13:11:54;11.73;;;4.50;;
31760;SDS011;18335;51.486;7.562;2022-12-07T13:23:24;13.77;;;3.58;;
31760;SDS011;18335;51.486;7.562;2022-12-07T13:25:59;12.80;;;3.67;;
31760;SDS011;18335;51.486;7.562;2022-12-07T13:28:35;8.80;;;3.97;;
31760;SDS011;18335;51.486;7.562;2022-12-07T13:31:16;11.98;;;3.35;;
31760;SDS011;18335;51.486;7.562;2022-12-07T13:33:48;12.52;;;3.72;;
31760;SDS011;18335;51.486;7.562;2022-12-07T13:36:17;10.65;;;3.05;;
31760;SDS011;18335;51.486;7.562;2022-12-07T13:38:54;9.30;;;3.20;;
31760;SDS011;18335;51.486;7.562;2022-12-07T13:41:22;12.37;;;3.03;;
31760;SDS011;18335;51.486;7.562;2022-12-07T13:43:52;16.17;;;3.65;;
31760;SDS011;18335;51.486;7.562;2022-12-07T13:46:24;12.68;;;3.50;;
31760;SDS011;18335;51.486;7.562;2022-12-07T13:48:56;14.10;;;3.08;;
31760;SDS011;18335;51.486;7.562;2022-12-07T13:51:23;12.30;;;2.95;;
31760;SDS011;18335;51.486;7.562;2022-12-07T13:53:52;11.52;;;3.38;;
31760;SDS011;18335;51.486;7.562;2022-12-07T13:56:21;10.55;;;3.13;;
31760;SDS011;18335;51.486;7.562;2022-12-07T13:58:51;21.25;;;5.60;;
31760;SDS011;18335;51.486;7.562;2022-12-07T14:01:17;12.90;;;2.72;;
31760;SDS011;18335;51.486;7.562;2022-12-07T14:03:46;14.00;;;4.38;;
31760;SDS011;18335;51.486;7.562;2022-12-07T14:06:14;10.63;;;3.50;;
31760;SDS011;18335;51.486;7.562;2022-12-07T14:08:43;16.55;;;3.85;;
31760;SDS011;18335;51.486;7.562;2022-12-07T14:11:13;12.23;;;4.18;;
31760;SDS011;18335;51.486;7.562;2022-12-07T14:13:44;14.57;;;4.10;;
31760;SDS011;18335;51.486;7.562;2022-12-07T14:16:21;13.50;;;3.33;;
31760;SDS011;18335;51.486;7.562;2022-12-07T14:18:54;17.35;;;6.07;;
31760;SDS011;18335;51.486;7.562;2022-12-07T14:21:23;11.63;;;3.30;;
31760;SDS011;18335;51.486;7.562;2022-12-07T14:24:11;8.63;;;3.55;;
31760;SDS011;18335;51.486;7.562;2022-12-07T14:26:42;11.50;;;3.03;;
31760;SDS011;18335;51.486;7.562;2022-12-07T14:29:20;17.55;;;3.20;;
31760;SDS011;18335;51.486;7.562;2022-12-07T14:31:58;12.88;;;3.28;;
31760;SDS011;18335;51.486;7.562;2022-12-07T14:34:32;18.48;;;4.05;;
31760;SDS011;18335;51.486;7.562;2022-12-07T14:36:58;11.75;;;3.67;;
31760;SDS011;18335;51.486;7.562;2022-12-07T14:39:25;10.68;;;4.35;;
31760;SDS011;18335;51.486;7.562;2022-12-07T14:41:52;10.27;;;3.17;;
31760;SDS011;18335;51.486;7.562;2022-12-07T14:44:19;7.78;;;2.78;;
31760;SDS011;18335;51.486;7.562;2022-12-07T14:46:47;10.88;;;3.17;;
31760;SDS011;18335;51.486;7.562;2022-12-07T14:49:14;13.70;;;3.40;;
31760;SDS011;18335;51.486;7.562;2022-12-07T14:51:42;10.18;;;3.03;;
31760;SDS011;18335;51.486;7.562;2022-12-07T14:54:13;16.70;;;4.55;;
31760;SDS011;18335;51.486;7.562;2022-12-07T14:56:42;17.33;;;5.35;;
31760;SDS011;18335;51.486;7.562;2022-12-07T14:59:09;11.23;;;3.47;;
31760;SDS011;18335;51.486;7.562;2022-12-07T15:01:36;9.60;;;3.38;;
31760;SDS011;18335;51.486;7.562;2022-12-07T15:04:03;7.88;;;3.17;;
31760;SDS011;18335;51.486;7.562;2022-12-07T15:06:30;15.07;;;3.63;;
31760;SDS011;18335;51.486;7.562;2022-12-07T15:08:58;13.43;;;3.35;;
31760;SDS011;18335;51.486;7.562;2022-12-07T15:11:25;8.65;;;2.65;;
31760;SDS011;18335;51.486;7.562;2022-12-07T15:13:52;8.85;;;2.67;;
31760;SDS011;18335;51.486;7.562;2022-12-07T15:16:34;6.07;;;2.65;;
31760;SDS011;18335;51.486;7.562;2022-12-07T15:19:01;8.80;;;2.80;;
31760;SDS011;18335;51.486;7.562;2022-12-07T15:21:28;9.25;;;2.90;;
31760;SDS011;18335;51.486;7.562;2022-12-07T15:23:55;10.10;;;3.50;;